Armour, South Dakota
Current Conditions -  °F | °C
As of 6:53 PM on Thursday 30 Oct 2014 (Local Time) from KMHE Reporting Station
Overcast Overcast  
Wind Chill: 35°   Ceiling: 2600
Heat Index: 42°   Visibility: 10mi
Dew Point: 32°   Wind: 15mph
Humidity: 67%   Direction: 350°N
Pressure: 30.4"   Gusts: 24mph
Location:  43.32°N, 98.35°W
Report Text: KMHE 302353Z AUTO 35013G21KT 10SM OVC026 06/00 A3040 RMK AO2 SLP303 T00560000 10078 20056 51035
Loading
Personal Weather Stations






























Interactive Weather Map
Tropical Storm Tracking
New forecast layout! Learn more

10-Day Weather Forecast

Advertisements
Track Severe Weather on mobile